sensor_id;sensor_type;location;lat;lon;timestamp;pressure;altitude;pressure_sealevel;temperature;humidity
40089;BME280;25793;55.706;13.186;2022-11-25T00:00:06;100907.91;;;7.84;80.28
40089;BME280;25793;55.706;13.186;2022-11-25T00:02:42;100907.91;;;7.84;80.27
40089;BME280;25793;55.706;13.186;2022-11-25T00:05:09;100911.25;;;7.86;80.18
40089;BME280;25793;55.706;13.186;2022-11-25T00:07:36;100910.47;;;7.84;80.34
40089;BME280;25793;55.706;13.186;2022-11-25T00:10:04;100906.22;;;7.83;80.53
40089;BME280;25793;55.706;13.186;2022-11-25T00:12:31;100907.06;;;7.83;80.47
40089;BME280;25793;55.706;13.186;2022-11-25T00:14:57;100907.06;;;7.83;80.51
40089;BME280;25793;55.706;13.186;2022-11-25T00:17:24;100900.06;;;7.85;80.20
40089;BME280;25793;55.706;13.186;2022-11-25T00:19:50;100907.97;;;7.82;80.32
40089;BME280;25793;55.706;13.186;2022-11-25T00:22:17;100901.94;;;7.82;80.25
40089;BME280;25793;55.706;13.186;2022-11-25T00:24:44;100913.06;;;7.84;80.22
40089;BME280;25793;55.706;13.186;2022-11-25T00:27:10;100907.06;;;7.83;80.38
40089;BME280;25793;55.706;13.186;2022-11-25T00:29:37;100907.00;;;7.85;80.37
40089;BME280;25793;55.706;13.186;2022-11-25T00:32:03;100915.47;;;7.88;80.25
40089;BME280;25793;55.706;13.186;2022-11-25T00:34:31;100912.16;;;7.85;80.27
40089;BME280;25793;55.706;13.186;2022-11-25T00:36:58;100913.84;;;7.86;80.15
40089;BME280;25793;55.706;13.186;2022-11-25T00:39:25;100917.44;;;7.83;80.22
40089;BME280;25793;55.706;13.186;2022-11-25T00:41:52;100922.47;;;7.86;80.36
40089;BME280;25793;55.706;13.186;2022-11-25T00:44:38;100922.41;;;7.88;80.49
40089;BME280;25793;55.706;13.186;2022-11-25T00:47:19;100914.72;;;7.86;80.20
40089;BME280;25793;55.706;13.186;2022-11-25T00:49:49;100924.28;;;7.84;80.33
40089;BME280;25793;55.706;13.186;2022-11-25T00:52:26;100914.84;;;7.83;80.28
40089;BME280;25793;55.706;13.186;2022-11-25T00:54:53;100915.53;;;7.87;80.31
40089;BME280;25793;55.706;13.186;2022-11-25T00:57:22;100923.25;;;7.88;80.42
40089;BME280;25793;55.706;13.186;2022-11-25T00:59:49;100918.72;;;7.94;80.25
40089;BME280;25793;55.706;13.186;2022-11-25T01:02:16;100930.56;;;7.99;80.04
40089;BME280;25793;55.706;13.186;2022-11-25T01:04:44;100924.50;;;7.99;79.79
40089;BME280;25793;55.706;13.186;2022-11-25T01:07:14;100926.06;;;8.03;79.77
40089;BME280;25793;55.706;13.186;2022-11-25T01:09:40;100932.88;;;8.05;79.75
40089;BME280;25793;55.706;13.186;2022-11-25T01:12:07;100936.38;;;8.04;79.72
40089;BME280;25793;55.706;13.186;2022-11-25T01:14:34;100933.66;;;8.08;79.63
40089;BME280;25793;55.706;13.186;2022-11-25T01:17:01;100927.44;;;8.12;79.41
40089;BME280;25793;55.706;13.186;2022-11-25T01:19:28;100930.16;;;8.09;79.36
40089;BME280;25793;55.706;13.186;2022-11-25T01:21:54;100927.34;;;8.13;79.42
40089;BME280;25793;55.706;13.186;2022-11-25T01:24:21;100928.81;;;8.19;79.13
40089;BME280;25793;55.706;13.186;2022-11-25T01:26:53;100928.97;;;8.16;79.16
40089;BME280;25793;55.706;13.186;2022-11-25T01:29:21;100923.47;;;8.03;79.15
40089;BME280;25793;55.706;13.186;2022-11-25T01:31:48;100936.44;;;8.03;79.63
40089;BME280;25793;55.706;13.186;2022-11-25T01:34:20;100926.78;;;8.07;79.36
40089;BME280;25793;55.706;13.186;2022-11-25T01:36:48;100933.56;;;8.09;79.27
40089;BME280;25793;55.706;13.186;2022-11-25T01:39:18;100938.63;;;8.12;79.08
40089;BME280;25793;55.706;13.186;2022-11-25T01:41:46;100937.84;;;8.10;79.08
40089;BME280;25793;55.706;13.186;2022-11-25T01:44:21;100933.66;;;8.08;79.00
40089;BME280;25793;55.706;13.186;2022-11-25T01:49:39;100939.28;;;7.97;79.42
40089;BME280;25793;55.706;13.186;2022-11-25T01:52:34;100933.91;;;8.01;79.21
40089;BME280;25793;55.706;13.186;2022-11-25T01:55:10;100932.94;;;8.04;79.24
40089;BME280;25793;55.706;13.186;2022-11-25T01:58:03;100931.97;;;8.07;79.08
40089;BME280;25793;55.706;13.186;2022-11-25T02:00:31;100928.53;;;8.06;78.98
40089;BME280;25793;55.706;13.186;2022-11-25T02:02:59;100926.16;;;8.01;79.06
40089;BME280;25793;55.706;13.186;2022-11-25T02:06:03;100931.16;;;7.85;79.47
40089;BME280;25793;55.706;13.186;2022-11-25T02:08:32;100926.88;;;7.84;79.90
40089;BME280;25793;55.706;13.186;2022-11-25T02:11:00;100928.22;;;7.93;79.78
40089;BME280;25793;55.706;13.186;2022-11-25T02:13:31;100924.94;;;7.89;79.99
40089;BME280;25793;55.706;13.186;2022-11-25T02:15:59;100920.72;;;7.87;79.93
40089;BME280;25793;55.706;13.186;2022-11-25T02:18:26;100923.31;;;7.87;80.18
40089;BME280;25793;55.706;13.186;2022-11-25T02:20:53;100917.56;;;7.80;80.16
40089;BME280;25793;55.706;13.186;2022-11-25T02:23:38;100910.75;;;7.78;80.14
40089;BME280;25793;55.706;13.186;2022-11-25T02:26:07;100914.84;;;7.83;80.13
40089;BME280;25793;55.706;13.186;2022-11-25T02:28:34;100915.75;;;7.82;80.44
40089;BME280;25793;55.706;13.186;2022-11-25T02:31:03;100920.00;;;7.83;80.35
40089;BME280;25793;55.706;13.186;2022-11-25T02:33:30;100931.41;;;7.79;80.63
40089;BME280;25793;55.706;13.186;2022-11-25T02:36:15;100930.53;;;7.79;80.66
40089;BME280;25793;55.706;13.186;2022-11-25T02:38:47;100927.00;;;7.81;80.67
40089;BME280;25793;55.706;13.186;2022-11-25T02:41:21;100922.72;;;7.80;80.94
40089;BME280;25793;55.706;13.186;2022-11-25T02:43:54;100918.59;;;7.76;80.99
40089;BME280;25793;55.706;13.186;2022-11-25T02:46:23;100923.06;;;7.72;81.54
40089;BME280;25793;55.706;13.186;2022-11-25T02:48:52;100914.31;;;7.75;81.28
40089;BME280;25793;55.706;13.186;2022-11-25T02:51:35;100919.56;;;7.73;81.46
40089;BME280;25793;55.706;13.186;2022-11-25T02:54:03;100916.00;;;7.76;81.41
40089;BME280;25793;55.706;13.186;2022-11-25T02:56:32;100921.09;;;7.78;81.25
40089;BME280;25793;55.706;13.186;2022-11-25T02:59:00;100918.34;;;7.82;81.33
40089;BME280;25793;55.706;13.186;2022-11-25T03:01:28;100918.38;;;7.81;81.29
40089;BME280;25793;55.706;13.186;2022-11-25T03:03:57;100914.97;;;7.80;81.24
40089;BME280;25793;55.706;13.186;2022-11-25T03:06:27;100908.94;;;7.80;81.46
40089;BME280;25793;55.706;13.186;2022-11-25T03:08:53;100918.50;;;7.78;81.46
40089;BME280;25793;55.706;13.186;2022-11-25T03:11:20;100916.69;;;7.80;81.49
40089;BME280;25793;55.706;13.186;2022-11-25T03:14:07;100912.28;;;7.82;81.15
40089;BME280;25793;55.706;13.186;2022-11-25T03:16:34;100907.97;;;7.82;81.16
40089;BME280;25793;55.706;13.186;2022-11-25T03:19:02;100905.50;;;7.79;81.30
40089;BME280;25793;55.706;13.186;2022-11-25T03:21:29;100906.53;;;7.75;81.52
40089;BME280;25793;55.706;13.186;2022-11-25T03:23:56;100905.44;;;7.81;81.50
40089;BME280;25793;55.706;13.186;2022-11-25T03:26:22;100913.06;;;7.84;81.36
40089;BME280;25793;55.706;13.186;2022-11-25T03:28:51;100920.06;;;7.82;81.37
40089;BME280;25793;55.706;13.186;2022-11-25T03:31:18;100923.31;;;7.87;81.29
40089;BME280;25793;55.706;13.186;2022-11-25T03:33:44;100913.66;;;7.90;81.18
40089;BME280;25793;55.706;13.186;2022-11-25T03:36:11;100912.00;;;7.89;81.29
40089;BME280;25793;55.706;13.186;2022-11-25T03:38:38;100914.28;;;7.96;81.32
40089;BME280;25793;55.706;13.186;2022-11-25T03:41:05;100914.56;;;7.89;81.13
40089;BME280;25793;55.706;13.186;2022-11-25T03:43:32;100913.66;;;7.90;81.19
40089;BME280;25793;55.706;13.186;2022-11-25T03:46:00;100905.91;;;7.90;81.00
40089;BME280;25793;55.706;13.186;2022-11-25T03:48:27;100909.31;;;7.91;80.83
40089;BME280;25793;55.706;13.186;2022-11-25T03:50:54;100914.50;;;7.91;80.69
40089;BME280;25793;55.706;13.186;2022-11-25T03:53:23;100909.31;;;7.91;80.76
40089;BME280;25793;55.706;13.186;2022-11-25T03:55:49;100909.56;;;7.85;81.03
40089;BME280;25793;55.706;13.186;2022-11-25T03:58:19;100909.78;;;7.80;81.12
40089;BME280;25793;55.706;13.186;2022-11-25T04:00:48;100911.53;;;7.80;80.92
40089;BME280;25793;55.706;13.186;2022-11-25T04:03:15;100919.25;;;7.81;80.98
40089;BME280;25793;55.706;13.186;2022-11-25T04:05:42;100922.09;;;7.75;80.96
40089;BME280;25793;55.706;13.186;2022-11-25T04:08:10;100917.59;;;7.79;80.83
40089;BME280;25793;55.706;13.186;2022-11-25T04:10:38;100920.97;;;7.81;80.87
40089;BME280;25793;55.706;13.186;2022-11-25T04:13:05;100920.84;;;7.84;81.01
40089;BME280;25793;55.706;13.186;2022-11-25T04:15:36;100915.88;;;7.79;80.97
40089;BME280;25793;55.706;13.186;2022-11-25T04:18:04;100925.44;;;7.77;80.75
40089;BME280;25793;55.706;13.186;2022-11-25T04:20:32;100914.69;;;7.66;81.28
40089;BME280;25793;55.706;13.186;2022-11-25T04:23:02;100922.22;;;7.72;81.10
40089;BME280;25793;55.706;13.186;2022-11-25T04:25:34;100924.16;;;7.67;80.96
40089;BME280;25793;55.706;13.186;2022-11-25T04:28:07;100922.72;;;7.59;81.27
40089;BME280;25793;55.706;13.186;2022-11-25T04:30:34;100927.25;;;7.54;81.33
40089;BME280;25793;55.706;13.186;2022-11-25T04:33:01;100929.91;;;7.53;81.54
40089;BME280;25793;55.706;13.186;2022-11-25T04:35:28;100920.94;;;7.39;81.67
40089;BME280;25793;55.706;13.186;2022-11-25T04:37:55;100921.84;;;7.38;81.80
40089;BME280;25793;55.706;13.186;2022-11-25T04:40:23;100932.34;;;7.35;81.95
40089;BME280;25793;55.706;13.186;2022-11-25T04:42:59;100937.00;;;7.27;82.10
40089;BME280;25793;55.706;13.186;2022-11-25T04:45:31;100935.31;;;7.26;81.85
40089;BME280;25793;55.706;13.186;2022-11-25T04:48:19;100934.44;;;7.25;82.00
40089;BME280;25793;55.706;13.186;2022-11-25T04:50:45;100935.34;;;7.24;82.24
40089;BME280;25793;55.706;13.186;2022-11-25T04:53:12;100934.53;;;7.24;82.25
40089;BME280;25793;55.706;13.186;2022-11-25T04:55:39;100939.75;;;7.22;82.41
40089;BME280;25793;55.706;13.186;2022-11-25T04:58:11;100933.78;;;7.20;82.23
40089;BME280;25793;55.706;13.186;2022-11-25T05:00:39;100940.78;;;7.18;82.43
40089;BME280;25793;55.706;13.186;2022-11-25T05:03:08;100947.81;;;7.14;82.65
40089;BME280;25793;55.706;13.186;2022-11-25T05:05:37;100954.66;;;7.15;82.54
40089;BME280;25793;55.706;13.186;2022-11-25T05:08:04;100960.75;;;7.14;82.68
40089;BME280;25793;55.706;13.186;2022-11-25T05:10:31;100952.88;;;7.18;82.79
40089;BME280;25793;55.706;13.186;2022-11-25T05:12:58;100950.34;;;7.16;82.45
40089;BME280;25793;55.706;13.186;2022-11-25T05:15:25;100953.88;;;7.13;82.57
40089;BME280;25793;55.706;13.186;2022-11-25T05:17:53;100955.66;;;7.13;82.84
40089;BME280;25793;55.706;13.186;2022-11-25T05:20:34;100958.28;;;7.11;82.82
40089;BME280;25793;55.706;13.186;2022-11-25T05:23:01;100960.94;;;7.10;82.95
40089;BME280;25793;55.706;13.186;2022-11-25T05:25:30;100963.41;;;7.13;83.10
40089;BME280;25793;55.706;13.186;2022-11-25T05:28:17;100962.25;;;7.20;83.08
40089;BME280;25793;55.706;13.186;2022-11-25T05:30:43;100965.25;;;7.31;82.87
40089;BME280;25793;55.706;13.186;2022-11-25T05:33:11;100970.13;;;7.39;82.69
40089;BME280;25793;55.706;13.186;2022-11-25T05:35:38;100967.28;;;7.45;82.64
40089;BME280;25793;55.706;13.186;2022-11-25T05:38:05;100973.06;;;7.52;82.53
40089;BME280;25793;55.706;13.186;2022-11-25T05:40:32;100961.69;;;7.56;82.55
40089;BME280;25793;55.706;13.186;2022-11-25T05:43:10;100964.88;;;7.63;82.19
40089;BME280;25793;55.706;13.186;2022-11-25T05:45:38;100976.91;;;7.64;82.22
40089;BME280;25793;55.706;13.186;2022-11-25T05:48:07;100974.91;;;7.71;82.36
40089;BME280;25793;55.706;13.186;2022-11-25T05:50:35;100979.91;;;7.75;82.06
40089;BME280;25793;55.706;13.186;2022-11-25T05:53:03;100980.41;;;7.84;81.93
40089;BME280;25793;55.706;13.186;2022-11-25T05:55:32;100981.19;;;7.86;81.53
40089;BME280;25793;55.706;13.186;2022-11-25T05:58:02;100982.16;;;7.83;81.65
40089;BME280;25793;55.706;13.186;2022-11-25T06:00:30;100987.78;;;7.93;81.49
40089;BME280;25793;55.706;13.186;2022-11-25T06:03:00;100980.69;;;7.98;81.20
40089;BME280;25793;55.706;13.186;2022-11-25T06:05:27;100995.06;;;8.05;80.86
40089;BME280;25793;55.706;13.186;2022-11-25T06:07:54;100987.19;;;8.07;80.51
40089;BME280;25793;55.706;13.186;2022-11-25T06:10:21;100986.38;;;8.07;80.58
40089;BME280;25793;55.706;13.186;2022-11-25T06:12:49;100990.81;;;8.03;80.36
40089;BME280;25793;55.706;13.186;2022-11-25T06:15:16;100998.22;;;7.92;80.26
40089;BME280;25793;55.706;13.186;2022-11-25T06:17:42;100994.19;;;7.84;80.45
40089;BME280;25793;55.706;13.186;2022-11-25T06:20:15;101002.75;;;7.86;80.60
40089;BME280;25793;55.706;13.186;2022-11-25T06:22:44;100999.97;;;7.91;80.46
40089;BME280;25793;55.706;13.186;2022-11-25T06:25:10;100993.81;;;7.94;80.47
40089;BME280;25793;55.706;13.186;2022-11-25T06:27:39;101006.38;;;7.82;80.26
40089;BME280;25793;55.706;13.186;2022-11-25T06:30:26;101008.56;;;7.71;80.41
40089;BME280;25793;55.706;13.186;2022-11-25T06:33:06;101012.38;;;7.62;80.46
40089;BME280;25793;55.706;13.186;2022-11-25T06:35:32;101017.34;;;7.67;80.74
40089;BME280;25793;55.706;13.186;2022-11-25T06:38:01;101025.19;;;7.65;80.47
40089;BME280;25793;55.706;13.186;2022-11-25T06:40:27;101023.44;;;7.66;80.68
40089;BME280;25793;55.706;13.186;2022-11-25T06:42:54;101021.50;;;7.71;80.69
40089;BME280;25793;55.706;13.186;2022-11-25T06:45:20;101022.94;;;7.78;80.29
40089;BME280;25793;55.706;13.186;2022-11-25T06:47:47;101027.34;;;7.76;80.21
40089;BME280;25793;55.706;13.186;2022-11-25T06:50:14;101023.72;;;7.80;80.26
40089;BME280;25793;55.706;13.186;2022-11-25T06:52:40;101021.19;;;7.79;80.16
40089;BME280;25793;55.706;13.186;2022-11-25T06:55:07;101020.34;;;7.78;80.04
40089;BME280;25793;55.706;13.186;2022-11-25T06:57:34;101022.06;;;7.78;79.93
40089;BME280;25793;55.706;13.186;2022-11-25T07:00:00;101014.75;;;7.67;79.93
40089;BME280;25793;55.706;13.186;2022-11-25T07:02:27;101023.25;;;7.70;80.07
40089;BME280;25793;55.706;13.186;2022-11-25T07:04:54;101033.28;;;7.78;79.82
40089;BME280;25793;55.706;13.186;2022-11-25T07:07:21;101031.28;;;7.85;79.87
40089;BME280;25793;55.706;13.186;2022-11-25T07:09:47;101028.03;;;7.80;79.49
40089;BME280;25793;55.706;13.186;2022-11-25T07:12:14;101032.59;;;7.74;79.69
40089;BME280;25793;55.706;13.186;2022-11-25T07:14:40;101042.53;;;7.84;79.62
40089;BME280;25793;55.706;13.186;2022-11-25T07:17:07;101036.47;;;7.85;79.37
40089;BME280;25793;55.706;13.186;2022-11-25T07:19:37;101042.63;;;7.82;79.42
40089;BME280;25793;55.706;13.186;2022-11-25T07:22:04;101035.81;;;7.80;79.52
40089;BME280;25793;55.706;13.186;2022-11-25T07:24:30;101044.34;;;7.82;79.68
40089;BME280;25793;55.706;13.186;2022-11-25T07:26:59;101038.34;;;7.81;79.42
40089;BME280;25793;55.706;13.186;2022-11-25T07:29:26;101051.97;;;7.86;79.54
40089;BME280;25793;55.706;13.186;2022-11-25T07:32:13;101054.06;;;7.76;79.84
40089;BME280;25793;55.706;13.186;2022-11-25T07:34:41;101057.38;;;7.80;79.76
40089;BME280;25793;55.706;13.186;2022-11-25T07:37:08;101054.53;;;7.86;79.94
40089;BME280;25793;55.706;13.186;2022-11-25T07:39:35;101052.91;;;7.84;79.92
40089;BME280;25793;55.706;13.186;2022-11-25T07:42:02;101050.16;;;7.88;79.86
40089;BME280;25793;55.706;13.186;2022-11-25T07:44:29;101050.31;;;7.84;79.79
40089;BME280;25793;55.706;13.186;2022-11-25T07:47:09;101056.09;;;7.90;79.72
40089;BME280;25793;55.706;13.186;2022-11-25T07:49:36;101052.34;;;7.98;79.61
40089;BME280;25793;55.706;13.186;2022-11-25T07:52:03;101047.34;;;7.93;79.50
40089;BME280;25793;55.706;13.186;2022-11-25T07:54:30;101052.00;;;7.85;79.57
40089;BME280;25793;55.706;13.186;2022-11-25T07:56:58;101049.94;;;7.93;79.63
40089;BME280;25793;55.706;13.186;2022-11-25T07:59:25;101048.06;;;7.97;79.40
40089;BME280;25793;55.706;13.186;2022-11-25T08:01:53;101052.50;;;7.95;79.67
40089;BME280;25793;55.706;13.186;2022-11-25T08:04:31;101037.06;;;7.92;79.37
40089;BME280;25793;55.706;13.186;2022-11-25T08:06:57;101052.53;;;7.93;79.43
40089;BME280;25793;55.706;13.186;2022-11-25T08:09:24;101047.47;;;7.90;79.55
40089;BME280;25793;55.706;13.186;2022-11-25T08:11:51;101053.56;;;7.89;79.55
40089;BME280;25793;55.706;13.186;2022-11-25T08:14:18;101056.94;;;7.91;79.44
40089;BME280;25793;55.706;13.186;2022-11-25T08:16:45;101052.66;;;7.90;79.60
40089;BME280;25793;55.706;13.186;2022-11-25T08:19:14;101050.16;;;7.88;79.29
40089;BME280;25793;55.706;13.186;2022-11-25T08:21:43;101052.75;;;7.88;79.53
40089;BME280;25793;55.706;13.186;2022-11-25T08:24:19;101054.84;;;7.79;79.55
40089;BME280;25793;55.706;13.186;2022-11-25T08:26:46;101057.31;;;7.82;79.64
40089;BME280;25793;55.706;13.186;2022-11-25T08:29:15;101058.75;;;7.89;79.46
40089;BME280;25793;55.706;13.186;2022-11-25T08:31:42;101067.50;;;7.86;79.79
40089;BME280;25793;55.706;13.186;2022-11-25T08:34:16;101067.06;;;7.97;79.44
40089;BME280;25793;55.706;13.186;2022-11-25T08:36:44;101070.19;;;8.05;79.29
40089;BME280;25793;55.706;13.186;2022-11-25T08:39:14;101066.56;;;8.10;78.66
40089;BME280;25793;55.706;13.186;2022-11-25T08:42:02;101072.53;;;8.12;78.83
40089;BME280;25793;55.706;13.186;2022-11-25T08:44:29;101079.09;;;8.19;78.49
40089;BME280;25793;55.706;13.186;2022-11-25T08:46:56;101079.88;;;8.21;78.37
40089;BME280;25793;55.706;13.186;2022-11-25T08:49:23;101076.50;;;8.19;78.07
40089;BME280;25793;55.706;13.186;2022-11-25T08:51:52;101080.75;;;8.22;78.04
40089;BME280;25793;55.706;13.186;2022-11-25T08:54:18;101069.59;;;8.19;78.20
40089;BME280;25793;55.706;13.186;2022-11-25T08:56:45;101068.94;;;8.14;78.04
40089;BME280;25793;55.706;13.186;2022-11-25T08:59:11;101077.28;;;8.21;78.02
40089;BME280;25793;55.706;13.186;2022-11-25T09:01:38;101077.03;;;8.07;78.08
40089;BME280;25793;55.706;13.186;2022-11-25T09:04:05;101079.09;;;8.19;78.38
40089;BME280;25793;55.706;13.186;2022-11-25T09:06:32;101083.22;;;8.25;78.12
40089;BME280;25793;55.706;13.186;2022-11-25T09:08:58;101077.03;;;8.27;78.01
40089;BME280;25793;55.706;13.186;2022-11-25T09:11:27;101077.00;;;8.29;77.89
40089;BME280;25793;55.706;13.186;2022-11-25T09:13:54;101077.91;;;8.28;77.81
40089;BME280;25793;55.706;13.186;2022-11-25T09:16:21;101076.22;;;8.27;77.87
40089;BME280;25793;55.706;13.186;2022-11-25T09:18:48;101078.47;;;8.34;77.74
40089;BME280;25793;55.706;13.186;2022-11-25T09:21:21;101086.81;;;8.41;77.34
40089;BME280;25793;55.706;13.186;2022-11-25T09:23:50;101079.03;;;8.41;77.44
40089;BME280;25793;55.706;13.186;2022-11-25T09:28:46;101095.09;;;8.51;77.18
40089;BME280;25793;55.706;13.186;2022-11-25T09:31:13;101102.81;;;8.53;76.97
40089;BME280;25793;55.706;13.186;2022-11-25T09:33:39;101110.94;;;8.43;77.17
40089;BME280;25793;55.706;13.186;2022-11-25T09:36:06;101109.38;;;8.39;77.26
40089;BME280;25793;55.706;13.186;2022-11-25T09:38:33;101111.84;;;8.42;77.26
40089;BME280;25793;55.706;13.186;2022-11-25T09:44:24;101118.66;;;8.45;77.33
40089;BME280;25793;55.706;13.186;2022-11-25T09:55:49;101116.75;;;8.50;76.97
40089;BME280;25793;55.706;13.186;2022-11-25T09:58:38;101106.38;;;8.50;77.17
40089;BME280;25793;55.706;13.186;2022-11-25T10:01:14;101106.22;;;8.53;77.24
40089;BME280;25793;55.706;13.186;2022-11-25T10:04:08;101104.03;;;8.64;77.08
40089;BME280;25793;55.706;13.186;2022-11-25T10:06:43;101102.53;;;8.59;77.07
40089;BME280;25793;55.706;13.186;2022-11-25T10:09:23;101107.13;;;8.52;77.09
40089;BME280;25793;55.706;13.186;2022-11-25T10:11:57;101103.84;;;8.48;77.17
40089;BME280;25793;55.706;13.186;2022-11-25T10:17:23;101107.84;;;8.56;77.40
40089;BME280;25793;55.706;13.186;2022-11-25T10:22:48;101111.41;;;8.74;76.42
40089;BME280;25793;55.706;13.186;2022-11-25T10:25:45;101107.13;;;8.73;76.43
40089;BME280;25793;55.706;13.186;2022-11-25T10:28:31;101102.72;;;8.75;76.39
40089;BME280;25793;55.706;13.186;2022-11-25T10:31:09;101107.66;;;8.81;76.21
40089;BME280;25793;55.706;13.186;2022-11-25T10:33:43;101104.06;;;8.84;76.16
40089;BME280;25793;55.706;13.186;2022-11-25T10:36:25;101102.25;;;8.86;76.12
40089;BME280;25793;55.706;13.186;2022-11-25T10:39:02;101102.38;;;8.83;75.81
40089;BME280;25793;55.706;13.186;2022-11-25T10:41:33;101096.22;;;8.85;76.30
40089;BME280;25793;55.706;13.186;2022-11-25T10:44:11;101106.75;;;8.82;76.37
40089;BME280;25793;55.706;13.186;2022-11-25T10:46:58;101107.16;;;8.92;75.31
40089;BME280;25793;55.706;13.186;2022-11-25T10:49:49;101110.31;;;8.99;75.27
40089;BME280;25793;55.706;13.186;2022-11-25T10:52:20;101111.88;;;9.03;75.02
40089;BME280;25793;55.706;13.186;2022-11-25T10:54:56;101112.44;;;9.09;74.91
40089;BME280;25793;55.706;13.186;2022-11-25T10:57:27;101112.88;;;9.00;74.65
40089;BME280;25793;55.706;13.186;2022-11-25T10:59:58;101109.34;;;9.01;74.72
40089;BME280;25793;55.706;13.186;2022-11-25T11:02:36;101105.84;;;9.02;74.81
40089;BME280;25793;55.706;13.186;2022-11-25T11:05:28;101104.94;;;9.03;74.87
40089;BME280;25793;55.706;13.186;2022-11-25T11:08:08;101115.47;;;9.00;74.87
40089;BME280;25793;55.706;13.186;2022-11-25T11:10:39;101102.66;;;8.95;74.60
40089;BME280;25793;55.706;13.186;2022-11-25T11:13:23;101106.19;;;8.94;75.14
40089;BME280;25793;55.706;13.186;2022-11-25T11:15:52;101104.78;;;8.87;75.10
40089;BME280;25793;55.706;13.186;2022-11-25T11:21:06;101102.66;;;8.95;75.17
40089;BME280;25793;55.706;13.186;2022-11-25T11:23:49;101098.13;;;9.01;75.26
40089;BME280;25793;55.706;13.186;2022-11-25T11:26:36;101104.22;;;9.00;75.04
40089;BME280;25793;55.706;13.186;2022-11-25T11:29:10;101106.81;;;9.00;74.93
40089;BME280;25793;55.706;13.186;2022-11-25T11:37:31;101112.28;;;8.93;74.78
40089;BME280;25793;55.706;13.186;2022-11-25T11:48:39;101129.25;;;9.01;74.93
40089;BME280;25793;55.706;13.186;2022-11-25T11:52:00;101119.75;;;9.01;74.89
40089;BME280;25793;55.706;13.186;2022-11-25T11:54:44;101118.59;;;9.07;74.25
40089;BME280;25793;55.706;13.186;2022-11-25T12:00:05;101130.47;;;9.13;75.44
40089;BME280;25793;55.706;13.186;2022-11-25T12:03:04;101126.75;;;9.18;75.33
40089;BME280;25793;55.706;13.186;2022-11-25T12:05:36;101124.81;;;9.23;75.00
40089;BME280;25793;55.706;13.186;2022-11-25T12:08:17;101130.78;;;9.26;74.63
40089;BME280;25793;55.706;13.186;2022-11-25T12:10:57;101131.59;;;9.26;74.60
40089;BME280;25793;55.706;13.186;2022-11-25T12:13:36;101137.69;;;9.25;74.45
40089;BME280;25793;55.706;13.186;2022-11-25T12:16:12;101132.16;;;9.14;75.19
40089;BME280;25793;55.706;13.186;2022-11-25T12:21:37;101137.44;;;9.31;75.11
40089;BME280;25793;55.706;13.186;2022-11-25T12:30:02;101129.22;;;9.21;74.25
40089;BME280;25793;55.706;13.186;2022-11-25T12:40:29;101151.44;;;9.08;73.84
40089;BME280;25793;55.706;13.186;2022-11-25T12:43:05;101150.59;;;9.07;74.68
40089;BME280;25793;55.706;13.186;2022-11-25T12:45:36;101146.47;;;9.03;74.52
40089;BME280;25793;55.706;13.186;2022-11-25T12:48:03;101145.59;;;9.03;74.70
40089;BME280;25793;55.706;13.186;2022-11-25T12:55:58;101135.56;;;8.95;74.29
40089;BME280;25793;55.706;13.186;2022-11-25T12:58:44;101143.28;;;8.97;73.88
40089;BME280;25793;55.706;13.186;2022-11-25T13:01:39;101140.50;;;9.01;74.12
40089;BME280;25793;55.706;13.186;2022-11-25T13:17:47;101151.91;;;8.97;73.84
40089;BME280;25793;55.706;13.186;2022-11-25T13:25:31;101143.34;;;8.95;73.83
40089;BME280;25793;55.706;13.186;2022-11-25T13:27:59;101150.88;;;9.01;74.13
40089;BME280;25793;55.706;13.186;2022-11-25T13:35:36;101145.56;;;8.84;74.04
40089;BME280;25793;55.706;13.186;2022-11-25T13:38:07;101156.59;;;8.89;73.93
40089;BME280;25793;55.706;13.186;2022-11-25T13:49:20;101152.94;;;8.93;73.53
40089;BME280;25793;55.706;13.186;2022-11-25T13:51:53;101163.13;;;8.98;73.47
40089;BME280;25793;55.706;13.186;2022-11-25T13:54:25;101171.81;;;8.97;73.69
40089;BME280;25793;55.706;13.186;2022-11-25T13:57:16;101155.59;;;8.91;73.54
40089;BME280;25793;55.706;13.186;2022-11-25T13:59:53;101168.78;;;8.87;73.71
40089;BME280;25793;55.706;13.186;2022-11-25T14:08:09;101168.06;;;8.83;73.64
40089;BME280;25793;55.706;13.186;2022-11-25T14:19:30;101179.28;;;8.63;74.26
40089;BME280;25793;55.706;13.186;2022-11-25T14:22:50;101183.25;;;8.72;74.03
40089;BME280;25793;55.706;13.186;2022-11-25T14:25:27;101181.31;;;8.77;74.22
40089;BME280;25793;55.706;13.186;2022-11-25T14:28:26;101185.72;;;8.75;74.23
40089;BME280;25793;55.706;13.186;2022-11-25T14:30:51;101183.81;;;8.78;74.10
40089;BME280;25793;55.706;13.186;2022-11-25T14:33:32;101183.13;;;8.75;73.99
40089;BME280;25793;55.706;13.186;2022-11-25T14:54:08;101183.03;;;8.76;73.56
40089;BME280;25793;55.706;13.186;2022-11-25T14:56:36;101191.94;;;8.71;73.73
40089;BME280;25793;55.706;13.186;2022-11-25T14:59:03;101182.66;;;8.65;74.31
40089;BME280;25793;55.706;13.186;2022-11-25T15:01:34;101196.66;;;8.61;74.37
40089;BME280;25793;55.706;13.186;2022-11-25T15:04:17;101198.22;;;8.65;74.11
40089;BME280;25793;55.706;13.186;2022-11-25T15:06:55;101191.28;;;8.65;74.27
40089;BME280;25793;55.706;13.186;2022-11-25T15:09:35;101194.00;;;8.62;74.44
40089;BME280;25793;55.706;13.186;2022-11-25T15:12:05;101189.72;;;8.61;74.45
40089;BME280;25793;55.706;13.186;2022-11-25T15:14:39;101186.19;;;8.42;74.82
40089;BME280;25793;55.706;13.186;2022-11-25T15:17:26;101179.59;;;8.33;75.12
40089;BME280;25793;55.706;13.186;2022-11-25T15:19:57;101189.97;;;8.33;75.34
40089;BME280;25793;55.706;13.186;2022-11-25T15:22:24;101186.47;;;8.34;75.30